FW6938 Weather Reports


Display with metric or nautical units.
time (UTC)temp
F
wind
direction
speed
MPH
gust
MPH
rain 1hr
in
rain 24hr
in
rain mn
in
humidity
%
barometer
mb
20211128094510 32 0 0.0 2.0 0.00 0.00 0.00 71 1030.2
20211128093034 32 0 0.0 2.0 0.00 0.00 0.00 70 1030.0
20211128091523 33 0 0.0 2.0 0.00 0.00 0.00 68 1029.9
20211128090024 34 0 0.0 1.0 0.00 0.00 0.00 67 1029.6
20211128084521 34 0 0.0 0.0 0.00 0.00 0.00 67 1029.5
20211128083015 34 0 0.0 1.0 0.00 0.00 0.00 68 1029.6
20211128081510 33 257 0.0 2.0 0.00 0.00 0.00 68 1029.6
20211128080018 33 0 0.0 0.0 0.00 0.00 0.00 68 1029.6
20211128074509 33 0 0.0 0.0 0.00 0.00 0.00 68 1029.8
20211128073009 34 0 0.0 2.0 0.00 0.00 0.00 66 1029.7
20211128071535 34 0 0.0 0.0 0.00 0.00 0.00 66 1029.8
20211128070013 34 0 0.0 1.0 0.00 0.00 0.00 64 1029.8
20211128064534 35 0 0.0 1.0 0.00 0.00 0.00 63 1029.7
20211128063031 35 0 0.0 0.0 0.00 0.00 0.00 62 1029.6
20211128061511 35 0 0.0 1.0 0.00 0.00 0.00 64 1029.6
20211128060015 35 0 0.0 1.0 0.00 0.00 0.00 64 1029.5
20211128054519 35 0 0.0 0.0 0.00 0.00 0.00 64 1029.4
20211128053012 34 0 0.0 2.0 0.00 0.00 0.00 66 1029.4
20211128051522 34 0 0.0 0.0 0.00 0.00 0.00 65 1029.5
20211128050018 34 0 0.0 0.0 0.00 0.00 0.00 64 1029.4
20211128044517 35 0 0.0 1.0 0.00 0.00 0.00 63 1029.3
20211128043017 34 257 1.0 2.0 0.00 0.00 0.00 63 1029.2
20211128041517 34 0 0.0 0.0 0.00 0.00 0.00 63 1029.0
20211128040010 34 0 0.0 0.0 0.00 0.00 0.00 63 1028.7
20211128034511 34 0 0.0 1.0 0.00 0.00 0.00 62 1028.5
20211128033010 34 0 0.0 0.0 0.00 0.00 0.00 62 1028.4
20211128031510 35 0 0.0 0.0 0.00 0.00 0.00 60 1028.5
20211128030011 35 0 0.0 0.0 0.00 0.00 0.00 59 1028.4
20211128024519 36 0 0.0 2.0 0.00 0.00 0.00 58 1028.1
20211128023028 36 257 1.0 2.0 0.00 0.00 0.00 57 1028.1
20211128021511 36 0 0.0 2.0 0.00 0.00 0.00 56 1027.9
20211128020016 37 0 0.0 0.0 0.00 0.00 0.00 53 1027.7
20211128014518 38 0 0.0 0.0 0.00 0.00 0.00 52 1027.6
20211128013038 39 0 0.0 0.0 0.00 0.00 0.00 50 1027.6
20211128011519 41 0 0.0 0.0 0.00 0.00 0.00 47 1027.4
20211128010028 42 0 0.0 1.0 0.00 0.00 0.00 45 1027.2
20211128004528 43 188 0.0 4.0 0.00 0.00 0.00 44 1026.9
20211128003011 43 164 1.0 4.0 0.00 0.00 0.00 43 1026.5
20211128001535 44 165 0.0 2.0 0.00 0.00 0.00 42 1026.5
20211128000025 46 171 0.0 1.0 0.00 0.00 0.00 40 1026.3
20211127234524 47 0 0.0 1.0 0.00 0.00 0.00 38 1026.2
20211127233013 48 171 1.0 6.0 0.00 0.00 0.00 38 1026.1
20211127231512 49 249 2.0 5.0 0.00 0.00 0.00 36 1026.2
20211127230044 50 151 1.0 5.0 0.00 0.00 0.00 36 1026.1
20211127224526 51 283 2.0 6.0 0.00 0.00 0.00 35 1025.7
20211127223109 51 0 2.0 4.0 0.00 0.00 0.00 35 1025.8
20211127221511 50 188 1.0 4.0 0.00 0.00 0.00 36 1025.8
20211127220020 50 261 1.0 5.0 0.00 0.00 0.00 36 1025.7
20211127214518 50 257 2.0 4.0 0.00 0.00 0.00 33 1025.6
20211127213013 49 265 2.0 5.0 0.00 0.00 0.00 30 1025.7
20211127211540 48 281 0.0 2.0 0.00 0.00 0.00 31 1026.0
20211127210009 48 0 1.0 4.0 0.00 0.00 0.00 29 1026.2
20211127204510 47 0 0.0 6.0 0.00 0.00 0.00 34 1026.2
20211127203010 47 259 1.0 4.0 0.00 0.00 0.00 38 1026.2
20211127201510 47 0 1.0 5.0 0.00 0.00 0.00 40 1026.1
20211127200023 46 185 0.0 5.0 0.00 0.00 0.00 41 1026.3
20211127194518 46 249 1.0 5.0 0.00 0.00 0.00 42 1026.4
20211127193015 45 263 1.0 4.0 0.00 0.00 0.00 43 1026.7
20211127191528 44 263 2.0 6.0 0.00 0.00 0.00 42 1026.7
20211127190020 45 284 1.0 7.0 0.00 0.00 0.00 43 1026.8
20211127184510 44 0 0.0 4.0 0.00 0.00 0.00 44 1027.0
20211127183011 43 0 0.0 4.0 0.00 0.00 0.00 46 1027.4
20211127181535 43 0 0.0 6.0 0.00 0.00 0.00 48 1027.2
20211127180032 42 265 1.0 4.0 0.00 0.00 0.00 47 1027.4
20211127174511 41 0 1.0 3.0 0.00 0.00 0.00 49 1027.9
20211127173020 40 0 1.0 3.0 0.00 0.00 0.00 52 1027.9
20211127171530 38 23 0.0 3.0 0.00 0.00 0.00 56 1027.8
20211127170011 37 0 0.0 2.0 0.00 0.00 0.00 59 1027.9
20211127164523 37 0 0.0 2.0 0.00 0.00 0.00 59 1027.7
20211127163033 35 110 0.0 2.0 0.00 0.00 0.00 62 1027.7
20211127161515 32 0 0.0 3.0 0.00 0.00 0.00 66 1028.0
20211127160019 29 111 0.0 2.0 0.00 0.00 0.00 68 1027.7
20211127154544 29 101 0.0 3.0 0.00 0.00 0.00 68 1027.7
20211127153016 29 0 0.0 2.0 0.00 0.00 0.00 67 1027.4
20211127151512 29 0 1.0 3.0 0.00 0.00 0.00 67 1027.4
20211127150033 28 0 0.0 0.0 0.00 0.00 0.00 66 1027.1
20211127144520 28 59 2.0 4.0 0.00 0.00 0.00 66 1026.9
20211127143016 27 193 1.0 2.0 0.00 0.00 0.00 67 1026.9
20211127141512 27 0 0.0 2.0 0.00 0.00 0.00 67 1026.5
20211127140047 27 0 1.0 2.0 0.00 0.00 0.00 66 1026.3
20211127134511 27 0 0.0 2.0 0.00 0.00 0.00 66 1026.2
20211127133016 28 0 0.0 0.0 0.00 0.00 0.00 65 1026.2
20211127131509 28 0 0.0 1.0 0.00 0.00 0.00 66 1025.8
20211127130025 28 193 0.0 2.0 0.00 0.00 0.00 64 1025.5
20211127124522 28 193 0.0 2.0 0.00 0.00 0.00 65 1025.4
20211127123012 28 0 0.0 0.0 0.00 0.00 0.00 64 1025.2
20211127121538 28 193 0.0 2.0 0.00 0.00 0.00 64 1025.2
20211127120039 28 0 0.0 0.0 0.00 0.00 0.00 64 1025.2
20211127114516 28 0 0.0 2.0 0.00 0.00 0.00 63 1025.2
20211127113017 28 0 0.0 0.0 0.00 0.00 0.00 63 1025.2
20211127111511 27 193 0.0 2.0 0.00 0.00 0.00 65 1025.0
20211127110011 28 0 0.0 0.0 0.00 0.00 0.00 63 1025.0
20211127104528 28 0 0.0 0.0 0.00 0.00 0.00 64 1024.9
20211127103022 28 0 0.0 0.0 0.00 0.00 0.00 64 1025.0
20211127101514 29 0 0.0 0.0 0.00 0.00 0.00 62 1025.2
20211127100035 29 0 0.0 2.0 0.00 0.00 0.00 61 1025.2